Time;durP1;ratioP1;P1;durP2;ratioP2;P2;SDS_P1;SDS_P2;PMS_P1;PMS_P2;Temp;Humidity;BMP_temperature;BMP_pressure;BME280_temperature;BME280_humidity;BME280_pressure;Samples;Min_cycle;Max_cycle;Signal;HPM_P1;HPM_P2
2022/03/19 00:00:46;;;;;;;11.00;3.47;;;4.60;99.90;;;;;;5007070;28;20040;-85
2022/03/19 00:03:12;;;;;;;10.45;2.72;;;4.60;99.90;;;;;;5006762;28;20482;-86
2022/03/19 00:05:38;;;;;;;15.05;3.50;;;4.60;99.90;;;;;;5006871;28;20038;-85
2022/03/19 00:08:05;;;;;;;14.75;3.40;;;4.60;99.90;;;;;;5007025;28;20433;-86
2022/03/19 00:10:31;;;;;;;10.40;2.50;;;4.50;99.90;;;;;;5008546;28;20046;-86
2022/03/19 00:12:58;;;;;;;15.85;3.30;;;4.50;99.90;;;;;;5008166;28;20072;-84
2022/03/19 00:15:24;;;;;;;12.23;3.55;;;4.50;99.90;;;;;;5013105;28;20045;-86
2022/03/19 00:17:51;;;;;;;16.63;4.13;;;4.50;99.90;;;;;;5007399;28;20073;-86
2022/03/19 00:20:17;;;;;;;13.20;3.15;;;4.50;99.90;;;;;;5012302;28;20046;-86
2022/03/19 00:22:43;;;;;;;11.85;2.72;;;4.40;99.90;;;;;;5006543;28;20501;-85
2022/03/19 00:25:11;;;;;;;13.05;2.95;;;4.40;99.90;;;;;;5006915;28;20393;-86
2022/03/19 00:27:37;;;;;;;11.80;2.78;;;4.30;99.90;;;;;;5005941;28;20185;-86
2022/03/19 00:30:03;;;;;;;14.88;3.60;;;4.30;99.90;;;;;;5006774;28;20050;-86
2022/03/19 00:32:29;;;;;;;12.43;2.83;;;4.30;99.90;;;;;;5005716;28;20410;-86
2022/03/19 00:34:54;;;;;;;10.18;2.80;;;4.30;99.90;;;;;;5006151;28;20403;-85
2022/03/19 00:37:20;;;;;;;14.57;3.88;;;4.30;99.90;;;;;;5005524;28;20049;-86
2022/03/19 00:39:45;;;;;;;14.13;3.78;;;4.20;99.90;;;;;;5004586;28;20041;-86
2022/03/19 00:42:11;;;;;;;16.42;3.03;;;4.20;99.90;;;;;;5006530;28;20406;-86
2022/03/19 00:44:37;;;;;;;13.48;3.28;;;4.30;99.90;;;;;;5006180;28;20038;-86
2022/03/19 00:47:02;;;;;;;12.32;3.55;;;4.20;99.90;;;;;;4988996;28;20053;-86
2022/03/19 00:49:28;;;;;;;13.70;3.10;;;4.20;99.90;;;;;;4997048;28;20046;-87
2022/03/19 00:51:53;;;;;;;11.77;3.17;;;4.20;99.90;;;;;;4988304;28;20478;-86
2022/03/19 00:54:19;;;;;;;9.02;2.67;;;4.10;99.90;;;;;;5008505;28;20075;-86
2022/03/19 00:56:46;;;;;;;13.70;3.08;;;4.10;99.90;;;;;;4988332;28;20079;-86
2022/03/19 00:59:12;;;;;;;15.80;3.50;;;4.10;99.90;;;;;;5009565;28;20502;-85
2022/03/19 01:01:38;;;;;;;13.13;3.30;;;4.00;99.90;;;;;;5007437;28;20401;-86
2022/03/19 01:04:04;;;;;;;12.10;3.47;;;4.00;99.90;;;;;;5006080;28;20046;-86
2022/03/19 01:06:29;;;;;;;12.13;3.42;;;4.00;99.90;;;;;;5004942;28;20095;-85
2022/03/19 01:08:55;;;;;;;10.35;3.03;;;3.90;99.90;;;;;;5004784;28;20444;-85
2022/03/19 01:11:23;;;;;;;19.40;4.78;;;3.90;99.90;;;;;;5004577;28;20034;-85
2022/03/19 01:13:50;;;;;;;13.70;3.50;;;3.90;99.90;;;;;;5004408;28;20110;-86
2022/03/19 01:16:18;;;;;;;10.45;3.00;;;3.90;99.90;;;;;;5002158;28;20072;-85
2022/03/19 01:18:45;;;;;;;11.43;3.00;;;3.90;99.90;;;;;;5004187;28;20406;-85
2022/03/19 01:21:10;;;;;;;9.48;2.50;;;3.90;99.90;;;;;;4988246;28;20098;-85
2022/03/19 01:23:36;;;;;;;13.32;3.67;;;3.80;99.90;;;;;;4987700;28;20490;-84
2022/03/19 01:26:02;;;;;;;14.10;3.78;;;3.80;99.90;;;;;;5008222;28;20046;-86
2022/03/19 01:28:27;;;;;;;11.40;3.05;;;3.80;99.90;;;;;;5009784;28;20061;-85
2022/03/19 01:30:53;;;;;;;10.52;2.60;;;3.80;99.90;;;;;;5009124;28;20326;-85
2022/03/19 01:33:18;;;;;;;12.30;3.13;;;3.80;99.90;;;;;;5009966;28;20149;-85
2022/03/19 01:35:44;;;;;;;11.77;3.10;;;3.80;99.90;;;;;;5008215;28;20048;-86
2022/03/19 01:38:09;;;;;;;9.90;3.20;;;3.80;99.90;;;;;;5009456;28;20049;-86
2022/03/19 01:40:35;;;;;;;13.48;3.03;;;3.70;99.90;;;;;;5007387;28;20065;-86
2022/03/19 01:43:01;;;;;;;9.52;3.65;;;3.70;99.90;;;;;;4991811;28;20402;-86
2022/03/19 01:45:27;;;;;;;11.73;2.70;;;3.70;99.90;;;;;;5009680;28;20083;-86
2022/03/19 01:47:54;;;;;;;14.95;3.90;;;3.80;99.90;;;;;;4990610;28;20729;-86
2022/03/19 01:50:21;;;;;;;12.85;3.53;;;3.70;99.90;;;;;;4992166;28;20050;-87
2022/03/19 01:52:48;;;;;;;10.88;3.13;;;3.70;99.90;;;;;;5011522;28;20064;-87
2022/03/19 01:55:17;;;;;;;12.10;3.20;;;3.80;99.90;;;;;;5012764;28;20504;-86
2022/03/19 01:57:45;;;;;;;10.88;4.22;;;3.80;99.90;;;;;;5008908;28;20493;-87
2022/03/19 02:00:17;;;;;;;9.63;3.03;;;3.80;99.90;;;;;;5008804;28;20068;-87
2022/03/19 02:02:44;;;;;;;10.43;3.47;;;3.80;99.90;;;;;;5008524;28;20383;-87
2022/03/19 02:05:14;;;;;;;12.13;3.78;;;3.80;99.90;;;;;;5007050;28;20102;-86
2022/03/19 02:07:41;;;;;;;9.30;2.90;;;3.80;99.90;;;;;;4990872;28;20046;-86
2022/03/19 02:10:09;;;;;;;12.45;3.67;;;3.80;99.90;;;;;;5008440;28;20042;-87
2022/03/19 02:12:35;;;;;;;11.23;3.53;;;3.80;99.90;;;;;;5007152;28;20057;-86
2022/03/19 02:15:01;;;;;;;11.93;3.58;;;3.80;99.90;;;;;;5007216;28;20536;-86
2022/03/19 02:17:27;;;;;;;13.18;3.90;;;3.80;99.90;;;;;;5009092;28;20120;-88
2022/03/19 02:19:55;;;;;;;14.98;4.00;;;3.80;99.90;;;;;;4990513;28;20053;-88
2022/03/19 02:22:22;;;;;;;10.23;3.50;;;3.70;99.90;;;;;;5007555;28;20095;-89
2022/03/19 02:27:33;;;;;;;12.10;4.32;;;3.70;99.90;;;;;;5001088;28;20425;-87
2022/03/19 02:29:59;;;;;;;13.05;3.67;;;3.70;99.90;;;;;;5008147;28;20060;-88
2022/03/19 02:32:25;;;;;;;13.73;3.60;;;3.70;99.90;;;;;;5008667;28;20041;-87
2022/03/19 02:34:52;;;;;;;11.85;3.28;;;3.70;99.90;;;;;;5008226;28;20050;-88
2022/03/19 02:37:18;;;;;;;13.55;3.40;;;3.70;99.90;;;;;;5006803;28;20046;-87
2022/03/19 02:39:44;;;;;;;9.10;3.05;;;3.70;99.90;;;;;;5011343;28;20040;-87
2022/03/19 02:42:09;;;;;;;14.90;3.83;;;3.70;99.90;;;;;;5008174;28;20394;-87
2022/03/19 02:44:36;;;;;;;13.38;3.33;;;3.70;99.90;;;;;;5007881;28;20178;-86
2022/03/19 02:47:05;;;;;;;10.85;3.85;;;3.70;99.90;;;;;;5007835;28;20065;-87
2022/03/19 02:49:31;;;;;;;12.25;3.22;;;3.70;99.90;;;;;;4999616;28;20062;-86
2022/03/19 02:51:57;;;;;;;13.40;4.72;;;3.60;99.90;;;;;;5009447;28;20049;-86
2022/03/19 02:54:25;;;;;;;12.45;3.75;;;3.60;99.90;;;;;;5008653;28;20042;-86
2022/03/19 02:56:51;;;;;;;14.55;4.13;;;3.60;99.90;;;;;;5007423;28;20042;-87
2022/03/19 02:59:20;;;;;;;11.15;3.00;;;3.60;99.90;;;;;;5007712;28;20041;-87
2022/03/19 03:01:47;;;;;;;11.93;3.55;;;3.60;99.90;;;;;;5007575;28;20068;-87
2022/03/19 03:04:13;;;;;;;15.73;4.25;;;3.60;99.90;;;;;;5007880;28;20518;-87
2022/03/19 03:06:43;;;;;;;13.15;3.83;;;3.60;99.90;;;;;;5005640;28;20042;-87
2022/03/19 03:09:10;;;;;;;15.55;4.28;;;3.60;99.90;;;;;;5017339;28;20053;-87
2022/03/19 03:11:36;;;;;;;11.55;3.78;;;3.60;99.90;;;;;;5006180;28;20050;-87
2022/03/19 03:14:03;;;;;;;13.02;3.97;;;3.60;99.90;;;;;;5008413;28;20402;-86
2022/03/19 03:16:30;;;;;;;15.05;3.90;;;3.60;99.90;;;;;;5006988;28;20046;-87
2022/03/19 03:18:57;;;;;;;15.05;4.53;;;3.60;99.90;;;;;;5007777;28;20054;-87
2022/03/19 03:21:24;;;;;;;11.90;3.97;;;3.60;99.90;;;;;;5007299;28;20045;-86
2022/03/19 03:23:50;;;;;;;11.88;3.70;;;3.50;99.90;;;;;;5012868;28;20144;-87
2022/03/19 03:26:16;;;;;;;11.23;3.70;;;3.50;99.90;;;;;;5007399;28;20053;-88
2022/03/19 03:28:41;;;;;;;15.63;4.63;;;3.50;99.90;;;;;;5005769;28;20042;-87
2022/03/19 03:31:07;;;;;;;12.68;3.28;;;3.50;99.90;;;;;;5007657;28;20030;-86
2022/03/19 03:33:33;;;;;;;15.63;4.68;;;3.40;99.90;;;;;;5007647;28;20042;-87
2022/03/19 03:35:59;;;;;;;13.25;4.40;;;3.40;99.90;;;;;;5007153;28;20121;-87
2022/03/19 03:38:24;;;;;;;16.45;4.47;;;3.40;99.90;;;;;;5006639;28;20046;-86
2022/03/19 03:40:51;;;;;;;14.00;3.97;;;3.40;99.90;;;;;;5005990;28;20473;-86
2022/03/19 03:43:17;;;;;;;13.05;3.83;;;3.40;99.90;;;;;;5006767;28;20414;-87
2022/03/19 03:45:42;;;;;;;11.80;4.10;;;3.40;99.90;;;;;;5007649;28;20038;-87
2022/03/19 03:48:09;;;;;;;10.40;3.92;;;3.40;99.90;;;;;;5006441;28;20138;-86
2022/03/19 03:50:35;;;;;;;16.60;4.57;;;3.40;99.90;;;;;;5005818;28;20195;-87
2022/03/19 03:53:03;;;;;;;13.27;4.00;;;3.40;99.90;;;;;;4990187;28;20414;-86
2022/03/19 03:55:28;;;;;;;13.70;4.53;;;3.30;99.90;;;;;;5007205;28;20133;-86
2022/03/19 03:57:54;;;;;;;11.05;3.95;;;3.30;99.90;;;;;;5005081;28;20129;-86
2022/03/19 04:00:19;;;;;;;18.20;4.40;;;3.30;99.90;;;;;;5007852;28;20046;-85
2022/03/19 04:02:45;;;;;;;15.20;4.20;;;3.30;99.90;;;;;;5007358;28;20058;-86
2022/03/19 04:05:11;;;;;;;12.45;4.50;;;3.20;99.90;;;;;;5006384;28;20103;-87
2022/03/19 04:07:36;;;;;;;13.50;4.35;;;3.20;99.90;;;;;;5006707;28;20046;-87
2022/03/19 04:10:02;;;;;;;12.20;4.32;;;3.20;99.90;;;;;;5006146;28;20429;-86
2022/03/19 04:12:28;;;;;;;11.30;4.72;;;3.10;99.90;;;;;;5006134;28;20046;-87
2022/03/19 04:14:54;;;;;;;24.25;5.00;;;3.10;99.90;;;;;;5005232;28;20064;-87
2022/03/19 04:17:19;;;;;;;12.48;4.22;;;3.00;99.90;;;;;;5007527;28;20046;-87
2022/03/19 04:19:45;;;;;;;18.58;6.30;;;3.00;99.90;;;;;;4988946;28;20030;-88
2022/03/19 04:22:11;;;;;;;16.50;4.60;;;3.00;99.90;;;;;;5006148;28;20081;-87
2022/03/19 04:24:37;;;;;;;15.15;5.05;;;3.00;99.90;;;;;;5006766;28;20077;-87
2022/03/19 04:27:03;;;;;;;14.65;4.47;;;3.00;99.90;;;;;;5005523;28;20144;-88
2022/03/19 04:29:29;;;;;;;13.88;4.90;;;3.00;99.90;;;;;;5006094;28;20041;-88
2022/03/19 04:31:55;;;;;;;14.65;4.68;;;3.10;99.90;;;;;;5006204;28;20494;-87
2022/03/19 04:34:20;;;;;;;12.15;4.10;;;3.10;99.90;;;;;;5005338;28;20041;-87
2022/03/19 04:36:46;;;;;;;16.67;4.03;;;3.10;99.90;;;;;;5009274;28;20062;-87
2022/03/19 04:39:12;;;;;;;16.60;4.78;;;3.00;99.90;;;;;;5006821;28;20030;-88
2022/03/19 04:41:38;;;;;;;17.05;5.13;;;3.10;99.90;;;;;;5006516;28;20432;-88
2022/03/19 04:44:05;;;;;;;14.65;5.22;;;3.10;99.90;;;;;;4999203;28;20465;-88
2022/03/19 04:46:31;;;;;;;13.05;5.00;;;3.20;99.90;;;;;;5006830;28;20042;-88
2022/03/19 04:48:57;;;;;;;14.38;5.40;;;3.10;99.90;;;;;;4988928;28;20056;-88
2022/03/19 04:51:33;;;;;;;17.70;5.03;;;3.20;99.90;;;;;;5009706;28;20537;-87
2022/03/19 04:53:59;;;;;;;14.70;5.00;;;3.20;99.90;;;;;;5007623;28;20132;-87
2022/03/19 04:56:27;;;;;;;13.23;4.60;;;3.20;99.90;;;;;;5007795;28;20046;-87
2022/03/19 04:58:54;;;;;;;15.27;4.70;;;3.10;99.90;;;;;;5006724;28;20042;-88
2022/03/19 05:01:20;;;;;;;16.45;4.97;;;3.10;99.90;;;;;;5007140;28;20049;-87
2022/03/19 05:03:46;;;;;;;16.10;5.22;;;3.10;99.90;;;;;;5005353;28;20046;-87
2022/03/19 05:06:12;;;;;;;14.50;4.68;;;3.00;99.90;;;;;;5005606;28;20042;-87
2022/03/19 05:08:37;;;;;;;14.02;4.68;;;3.00;99.90;;;;;;5006006;28;20496;-87
2022/03/19 05:11:17;;;;;;;11.55;4.68;;;3.00;99.90;;;;;;5004965;28;20042;-87
2022/03/19 05:13:44;;;;;;;18.67;4.97;;;2.90;99.90;;;;;;5006115;28;20046;-88
2022/03/19 05:16:13;;;;;;;14.38;4.72;;;2.90;99.90;;;;;;5006247;28;20049;-88
2022/03/19 05:18:39;;;;;;;16.58;5.07;;;2.90;99.90;;;;;;5005725;28;20492;-88
2022/03/19 05:21:04;;;;;;;19.90;5.55;;;3.00;99.90;;;;;;5005024;28;20050;-88
2022/03/19 05:23:31;;;;;;;15.68;5.53;;;3.00;99.90;;;;;;5005066;28;20077;-88
2022/03/19 05:25:58;;;;;;;16.25;4.80;;;3.10;99.90;;;;;;5004262;28;20129;-88
2022/03/19 05:28:24;;;;;;;13.27;4.85;;;3.10;99.90;;;;;;5006403;28;20706;-89
2022/03/19 05:30:50;;;;;;;13.77;4.78;;;3.10;99.90;;;;;;5035561;28;20096;-88
2022/03/19 05:33:16;;;;;;;13.77;4.60;;;3.20;99.90;;;;;;5004560;28;20095;-87
2022/03/19 05:35:44;;;;;;;17.23;5.45;;;3.20;99.90;;;;;;5018234;28;20042;-88
2022/03/19 05:38:10;;;;;;;13.85;5.05;;;3.20;99.90;;;;;;5005441;28;20042;-88
2022/03/19 05:40:36;;;;;;;15.45;5.07;;;3.20;99.90;;;;;;5005857;28;20060;-88
2022/03/19 05:43:02;;;;;;;11.80;5.05;;;3.20;99.90;;;;;;4987712;28;20046;-88
2022/03/19 05:45:28;;;;;;;14.13;5.22;;;3.30;99.90;;;;;;5005192;28;20046;-88
2022/03/19 05:47:53;;;;;;;15.63;6.00;;;3.30;99.90;;;;;;5004700;28;20054;-88
2022/03/19 05:50:19;;;;;;;11.98;4.63;;;3.30;99.90;;;;;;5005671;28;20034;-89
2022/03/19 05:52:45;;;;;;;15.13;5.38;;;3.30;99.90;;;;;;5005578;28;20517;-88
2022/03/19 05:55:11;;;;;;;13.80;5.03;;;3.30;99.90;;;;;;5004276;28;20098;-87
2022/03/19 05:57:37;;;;;;;16.73;5.65;;;3.30;99.90;;;;;;5006410;28;20435;-89
2022/03/19 06:00:04;;;;;;;17.48;5.55;;;3.30;99.90;;;;;;5005408;28;20042;-90
2022/03/19 06:02:30;;;;;;;16.92;5.45;;;3.40;99.90;;;;;;5004787;28;20157;-88
2022/03/19 06:04:56;;;;;;;16.95;5.50;;;3.40;99.90;;;;;;5003969;28;20503;-88
2022/03/19 06:07:21;;;;;;;13.43;6.15;;;3.40;99.90;;;;;;5005683;28;20038;-89
2022/03/19 06:09:47;;;;;;;17.95;6.10;;;3.40;99.90;;;;;;5003896;28;20046;-90
2022/03/19 06:12:13;;;;;;;14.43;5.70;;;3.40;99.90;;;;;;5006254;28;20395;-89
2022/03/19 06:14:39;;;;;;;14.40;5.13;;;3.40;99.90;;;;;;5008311;28;20038;-89
2022/03/19 06:17:04;;;;;;;17.13;5.78;;;3.40;99.90;;;;;;5008758;28;20486;-87
2022/03/19 06:19:30;;;;;;;14.35;5.78;;;3.50;99.90;;;;;;5010345;28;20038;-87
2022/03/19 06:21:55;;;;;;;14.43;4.90;;;3.50;99.90;;;;;;5008956;28;20140;-88
2022/03/19 06:24:23;;;;;;;14.02;5.20;;;3.50;99.90;;;;;;5010373;28;20045;-87
2022/03/19 06:26:49;;;;;;;15.13;5.80;;;3.60;99.90;;;;;;5009496;28;20034;-88
2022/03/19 06:29:15;;;;;;;14.85;5.85;;;3.60;99.90;;;;;;5010990;28;20046;-88
2022/03/19 06:31:40;;;;;;;13.88;5.97;;;3.60;99.90;;;;;;5006360;28;20095;-87
2022/03/19 06:34:06;;;;;;;15.55;5.50;;;3.60;99.90;;;;;;5007060;28;20069;-86
2022/03/19 06:39:15;;;;;;;13.20;5.07;;;3.70;99.90;;;;;;5001628;28;20049;-87
2022/03/19 06:41:41;;;;;;;16.55;6.63;;;3.80;99.90;;;;;;5008340;28;20466;-87
2022/03/19 06:44:07;;;;;;;13.80;5.90;;;3.90;99.90;;;;;;5007719;28;20380;-89
2022/03/19 06:46:32;;;;;;;14.93;5.28;;;3.90;99.90;;;;;;5007108;28;20042;-88
2022/03/19 06:48:58;;;;;;;15.25;5.93;;;3.90;99.90;;;;;;5008036;28;20565;-86
2022/03/19 06:51:23;;;;;;;15.55;5.68;;;4.00;99.90;;;;;;5012110;28;20178;-88
2022/03/19 06:53:49;;;;;;;13.50;6.07;;;4.00;99.90;;;;;;5006764;28;20482;-88
2022/03/19 06:56:16;;;;;;;17.35;5.80;;;4.10;99.90;;;;;;5030815;28;20121;-88
2022/03/19 06:58:42;;;;;;;14.70;5.05;;;4.10;99.90;;;;;;5007273;28;20037;-87
2022/03/19 07:01:14;;;;;;;15.40;5.13;;;4.20;99.90;;;;;;5007693;28;20073;-87
2022/03/19 07:03:44;;;;;;;14.45;5.35;;;4.20;99.90;;;;;;5008059;28;20409;-88
2022/03/19 07:06:11;;;;;;;18.58;6.95;;;4.30;99.90;;;;;;5006411;28;20078;-89
2022/03/19 07:08:37;;;;;;;16.30;5.50;;;4.30;99.90;;;;;;4990127;28;20042;-89
2022/03/19 07:11:03;;;;;;;14.85;5.90;;;4.40;99.90;;;;;;5006356;28;20072;-88
2022/03/19 07:13:28;;;;;;;13.38;5.30;;;4.50;99.90;;;;;;5006222;28;20395;-87
2022/03/19 07:15:54;;;;;;;15.25;5.80;;;4.50;99.90;;;;;;5007441;28;20070;-90
2022/03/19 07:18:19;;;;;;;16.30;5.75;;;4.60;99.90;;;;;;5009636;28;20091;-90
2022/03/19 07:20:45;;;;;;;12.30;5.40;;;4.70;99.90;;;;;;5006549;28;20046;-89
2022/03/19 07:23:10;;;;;;;15.40;5.55;;;4.80;99.90;;;;;;5007168;28;20140;-90
2022/03/19 07:25:38;;;;;;;13.23;5.30;;;4.80;99.90;;;;;;5006253;28;20038;-89
2022/03/19 07:28:06;;;;;;;13.20;5.10;;;4.90;99.90;;;;;;5006941;28;20398;-88
2022/03/19 07:30:32;;;;;;;16.23;5.88;;;4.90;99.90;;;;;;5006484;28;20037;-88
2022/03/19 07:32:58;;;;;;;17.58;6.22;;;5.00;99.90;;;;;;5012460;28;20045;-87
2022/03/19 07:35:25;;;;;;;16.08;5.68;;;5.10;99.90;;;;;;5008694;28;20042;-87
2022/03/19 07:37:50;;;;;;;19.55;6.30;;;5.20;99.90;;;;;;5004613;28;20400;-87
2022/03/19 07:43:14;;;;;;;15.68;5.10;;;5.40;99.90;;;;;;5044596;28;20053;-87
2022/03/19 07:45:41;;;;;;;16.27;6.25;;;5.50;99.90;;;;;;5021485;28;20123;-86
2022/03/19 07:48:07;;;;;;;15.68;5.78;;;5.60;99.90;;;;;;5018983;28;20438;-88
2022/03/19 07:50:34;;;;;;;14.25;5.68;;;5.80;99.90;;;;;;5035012;28;20046;-85
2022/03/19 07:53:00;;;;;;;14.90;4.75;;;5.90;99.90;;;;;;5014543;28;20091;-88
2022/03/19 07:55:26;;;;;;;13.77;4.78;;;6.00;99.90;;;;;;5036946;28;20145;-88
2022/03/19 07:57:52;;;;;;;17.83;5.45;;;6.10;99.90;;;;;;5025411;28;20048;-86
2022/03/19 08:00:18;;;;;;;12.15;4.78;;;6.20;99.90;;;;;;5019471;28;20057;-86
2022/03/19 08:02:44;;;;;;;17.33;5.00;;;6.30;99.90;;;;;;5041587;28;20484;-86
2022/03/19 08:05:11;;;;;;;18.63;5.13;;;6.40;99.90;;;;;;5035180;28;20037;-86
2022/03/19 08:07:37;;;;;;;15.20;4.78;;;6.40;99.90;;;;;;5030399;28;20061;-86
2022/03/19 08:10:07;;;;;;;12.48;5.07;;;6.50;99.90;;;;;;5024201;28;20110;-84
2022/03/19 08:12:34;;;;;;;12.88;4.50;;;6.70;99.90;;;;;;5022708;28;20052;-84
2022/03/19 08:15:02;;;;;;;17.85;5.13;;;6.80;99.90;;;;;;5032573;28;20045;-83
2022/03/19 08:17:28;;;;;;;15.18;4.30;;;6.80;99.90;;;;;;5035674;28;20065;-84
2022/03/19 08:19:56;;;;;;;14.13;5.13;;;6.90;99.90;;;;;;5005976;28;20104;-84
2022/03/19 08:22:21;;;;;;;14.75;4.60;;;7.00;99.90;;;;;;5006484;28;20099;-84
2022/03/19 08:24:47;;;;;;;12.95;4.25;;;7.10;99.90;;;;;;5006490;28;20046;-85
2022/03/19 08:27:13;;;;;;;14.48;4.50;;;7.20;99.90;;;;;;5016580;28;20376;-84
2022/03/19 08:29:38;;;;;;;15.52;4.32;;;7.30;99.90;;;;;;5026598;28;20076;-86
2022/03/19 08:32:04;;;;;;;11.00;5.05;;;7.30;99.90;;;;;;5008945;28;20426;-84
2022/03/19 08:34:30;;;;;;;15.68;5.47;;;7.40;99.90;;;;;;5005470;28;20037;-84
2022/03/19 08:36:55;;;;;;;13.95;6.28;;;7.60;99.90;;;;;;5004855;28;20046;-86
2022/03/19 08:42:05;;;;;;;12.07;3.90;;;7.70;99.90;;;;;;5011622;28;20061;-85
2022/03/19 08:44:31;;;;;;;12.77;4.18;;;7.80;99.90;;;;;;5006477;28;20552;-85
2022/03/19 08:46:56;;;;;;;15.70;4.85;;;7.90;99.90;;;;;;5005881;28;20133;-86
2022/03/19 08:49:22;;;;;;;12.80;4.53;;;8.00;99.90;;;;;;5006450;28;20048;-85
2022/03/19 08:51:47;;;;;;;13.60;4.85;;;8.00;99.90;;;;;;5005948;28;20041;-85
2022/03/19 08:54:16;;;;;;;11.38;3.60;;;8.20;99.90;;;;;;5004481;28;20302;-85
2022/03/19 08:56:44;;;;;;;11.52;3.33;;;8.20;99.90;;;;;;5010655;28;20086;-84
2022/03/19 08:59:10;;;;;;;12.77;4.32;;;8.30;99.90;;;;;;5003533;28;20077;-83
2022/03/19 09:01:37;;;;;;;13.32;4.10;;;8.50;99.90;;;;;;5015651;28;20054;-85
2022/03/19 09:04:03;;;;;;;13.02;4.45;;;8.60;99.90;;;;;;5040252;28;20054;-85
2022/03/19 09:06:29;;;;;;;10.30;3.78;;;8.70;99.90;;;;;;5020006;28;20045;-85
2022/03/19 09:08:54;;;;;;;12.70;3.67;;;8.80;99.90;;;;;;4999230;28;20050;-83
2022/03/19 09:11:22;;;;;;;10.85;4.07;;;8.80;99.90;;;;;;5011409;28;20117;-83
2022/03/19 09:13:49;;;;;;;14.35;4.50;;;8.90;99.90;;;;;;4997126;28;20151;-84
2022/03/19 09:16:16;;;;;;;14.60;4.30;;;9.00;99.90;;;;;;5006655;28;20049;-83
2022/03/19 09:18:41;;;;;;;13.65;4.10;;;9.10;99.90;;;;;;5005906;28;20046;-83
2022/03/19 09:21:07;;;;;;;13.63;4.30;;;9.20;99.90;;;;;;5006362;28;20053;-83
2022/03/19 09:23:33;;;;;;;12.85;4.50;;;9.30;99.90;;;;;;5006075;28;20329;-86
2022/03/19 09:25:59;;;;;;;12.82;3.95;;;9.40;99.90;;;;;;5006190;28;20049;-84
2022/03/19 09:28:25;;;;;;;12.25;4.05;;;9.40;99.90;;;;;;5006951;28;20416;-85
2022/03/19 09:30:51;;;;;;;12.32;3.90;;;9.50;99.90;;;;;;5006150;28;20049;-84
2022/03/19 09:33:17;;;;;;;9.85;3.65;;;9.60;99.90;;;;;;5006179;28;20050;-85
2022/03/19 09:35:43;;;;;;;9.98;3.78;;;9.60;98.30;;;;;;5005999;28;20065;-84
2022/03/19 09:38:09;;;;;;;12.23;4.13;;;9.70;99.90;;;;;;5005801;28;20050;-86
2022/03/19 09:40:34;;;;;;;12.93;3.97;;;9.70;98.30;;;;;;5005734;28;20053;-84
2022/03/19 09:43:00;;;;;;;13.80;3.95;;;9.80;98.20;;;;;;5007279;28;20046;-84
2022/03/19 09:45:27;;;;;;;12.50;3.20;;;9.90;95.10;;;;;;5006240;28;20445;-86
2022/03/19 09:47:54;;;;;;;10.30;3.47;;;9.90;94.20;;;;;;5009087;28;20065;-84
2022/03/19 09:50:20;;;;;;;11.15;3.15;;;10.00;94.90;;;;;;5008893;28;20429;-86
2022/03/19 09:52:51;;;;;;;11.95;3.83;;;10.10;91.60;;;;;;5008612;28;20096;-85
2022/03/19 09:55:18;;;;;;;13.45;4.45;;;10.10;88.90;;;;;;5009488;28;20038;-85
2022/03/19 09:57:45;;;;;;;10.73;3.38;;;10.20;90.30;;;;;;5010369;28;20124;-87
2022/03/19 10:00:14;;;;;;;11.65;3.35;;;10.20;90.10;;;;;;5008893;28;20046;-88
2022/03/19 10:02:56;;;;;;;9.23;3.08;;;10.30;86.40;;;;;;5007605;28;20448;-85
2022/03/19 10:10:54;;;;;;;11.10;3.42;;;10.60;78.70;;;;;;5009202;28;20090;-87
2022/03/19 10:13:20;;;;;;;10.23;3.88;;;10.70;78.20;;;;;;5008392;28;20383;-85
2022/03/19 10:15:46;;;;;;;8.70;2.78;;;10.70;75.20;;;;;;5023817;28;20053;-85
2022/03/19 10:18:11;;;;;;;9.88;3.38;;;10.80;74.50;;;;;;5023767;28;20499;-85
2022/03/19 10:20:37;;;;;;;10.20;3.33;;;10.80;75.50;;;;;;5008404;28;20045;-85
2022/03/19 10:23:04;;;;;;;9.10;3.28;;;10.80;73.70;;;;;;5006749;28;20050;-86
2022/03/19 10:25:31;;;;;;;11.10;3.13;;;10.90;74.50;;;;;;5013780;28;20041;-87
2022/03/19 10:28:02;;;;;;;11.02;3.38;;;11.00;72.20;;;;;;5008706;28;20076;-89
2022/03/19 10:30:39;;;;;;;10.48;3.30;;;11.00;72.80;;;;;;5010382;28;20038;-86
2022/03/19 10:33:08;;;;;;;9.88;3.30;;;11.00;71.50;;;;;;5010527;28;20452;-86
2022/03/19 10:35:39;;;;;;;10.40;3.30;;;11.00;71.10;;;;;;5008407;28;20500;-86
2022/03/19 10:38:18;;;;;;;;;;;11.10;68.70;;;;;;5007642;28;20076;-86
2022/03/19 10:40:47;;;;;;;10.27;2.88;;;11.00;65.00;;;;;;5006917;28;20344;-87
2022/03/19 10:43:16;;;;;;;8.57;2.78;;;11.10;70.50;;;;;;5008888;28;20438;-87
2022/03/19 10:45:46;;;;;;;10.10;3.20;;;11.20;69.50;;;;;;5013173;28;20050;-86
2022/03/19 10:48:13;;;;;;;10.38;3.28;;;11.30;69.90;;;;;;5008311;28;20050;-87
2022/03/19 10:50:40;;;;;;;9.75;2.60;;;11.30;69.10;;;;;;5008489;28;20109;-87
2022/03/19 10:53:06;;;;;;;9.15;2.92;;;11.40;67.40;;;;;;5007548;28;20502;-86
2022/03/19 10:55:32;;;;;;;9.40;2.60;;;11.40;66.30;;;;;;5009247;28;20037;-84
2022/03/19 10:57:58;;;;;;;10.30;2.58;;;11.40;66.80;;;;;;5007275;28;20045;-87
2022/03/19 11:00:24;;;;;;;9.13;2.85;;;11.50;64.40;;;;;;5008185;28;20085;-87
2022/03/19 11:02:54;;;;;;;7.75;2.65;;;11.60;64.80;;;;;;5006235;28;20061;-85
2022/03/19 11:05:21;;;;;;;8.65;2.80;;;11.60;63.10;;;;;;5001549;28;20084;-87
2022/03/19 11:07:47;;;;;;;7.43;2.30;;;11.60;63.30;;;;;;5002663;28;20052;-88
2022/03/19 11:10:14;;;;;;;8.73;2.50;;;11.70;63.20;;;;;;4989090;28;20475;-87
2022/03/19 11:12:43;;;;;;;6.97;2.50;;;11.70;61.00;;;;;;5035947;28;20123;-88
2022/03/19 11:15:11;;;;;;;7.97;2.03;;;11.70;60.40;;;;;;4991290;28;20085;-87
2022/03/19 11:17:40;;;;;;;5.95;1.60;;;11.70;56.50;;;;;;4997368;28;20046;-87
2022/03/19 11:20:08;;;;;;;8.35;2.45;;;11.80;56.00;;;;;;4988914;28;20043;-87
2022/03/19 11:22:58;;;;;;;6.80;2.00;;;11.80;56.80;;;;;;4991184;28;20081;-88
2022/03/19 11:25:26;;;;;;;7.03;2.10;;;11.90;56.10;;;;;;5014781;28;20053;-89
2022/03/19 11:27:53;;;;;;;8.57;2.40;;;12.00;58.50;;;;;;5023756;28;20119;-90
2022/03/19 11:30:25;;;;;;;8.52;2.50;;;12.00;58.50;;;;;;5009255;28;20049;-88
2022/03/19 11:33:16;;;;;;;8.80;2.60;;;12.10;58.50;;;;;;5010005;28;20587;-87
2022/03/19 11:35:47;;;;;;;9.80;3.13;;;12.10;58.90;;;;;;5006338;28;20037;-87
2022/03/19 11:38:20;;;;;;;8.93;2.42;;;12.10;59.50;;;;;;5008561;28;20173;-88
2022/03/19 11:40:47;;;;;;;9.75;2.42;;;12.10;59.00;;;;;;5008124;28;20482;-90
2022/03/19 11:43:25;;;;;;;8.10;2.28;;;12.20;57.80;;;;;;5009033;28;20120;-90
2022/03/19 11:46:03;;;;;;;6.40;1.70;;;12.20;57.60;;;;;;5009069;28;20045;-90
2022/03/19 11:48:34;;;;;;;10.32;2.83;;;12.20;57.70;;;;;;5009058;28;20087;-91
2022/03/19 11:51:15;;;;;;;6.20;2.30;;;12.20;57.10;;;;;;5008028;28;20050;-87
2022/03/19 11:54:00;;;;;;;6.43;2.13;;;12.20;55.30;;;;;;5007340;28;20037;-90
2022/03/19 11:56:41;;;;;;;5.35;1.80;;;12.20;55.60;;;;;;5002110;28;20558;-89
2022/03/19 11:59:16;;;;;;;6.85;2.05;;;12.20;53.40;;;;;;5006398;28;20125;-87
2022/03/19 12:01:55;;;;;;;8.02;2.30;;;12.20;54.30;;;;;;5005759;28;20064;-88
2022/03/19 12:04:22;;;;;;;6.68;1.90;;;12.20;54.30;;;;;;5006720;28;20079;-88
2022/03/19 12:06:56;;;;;;;6.47;1.90;;;12.30;55.40;;;;;;5018706;28;20052;-87
2022/03/19 12:09:39;;;;;;;5.55;1.92;;;12.40;54.30;;;;;;5027933;28;20056;-89
2022/03/19 12:12:26;;;;;;;5.55;1.80;;;12.40;54.10;;;;;;5027284;28;20393;-91
2022/03/19 12:14:52;;;;;;;8.00;2.10;;;12.40;52.10;;;;;;5025814;28;20585;-88
2022/03/19 12:17:18;;;;;;;7.43;2.10;;;12.50;55.50;;;;;;5025971;28;20041;-88
2022/03/19 12:20:01;;;;;;;8.00;2.08;;;12.50;56.00;;;;;;5009651;28;20049;-87
2022/03/19 12:22:42;;;;;;;7.70;1.80;;;12.50;53.70;;;;;;5010015;28;20053;-83
2022/03/19 12:25:25;;;;;;;7.55;1.98;;;12.50;53.00;;;;;;5014373;28;20067;-88
2022/03/19 12:27:55;;;;;;;6.88;2.00;;;12.60;53.20;;;;;;5006265;28;20085;-91
2022/03/19 12:30:22;;;;;;;5.85;1.80;;;12.60;53.60;;;;;;5008040;28;20482;-89
2022/03/19 12:32:56;;;;;;;6.13;1.65;;;12.60;53.80;;;;;;5005329;28;20037;-87
2022/03/19 12:35:26;;;;;;;6.18;1.83;;;12.70;53.00;;;;;;5008088;28;20041;-89
2022/03/19 12:37:54;;;;;;;6.63;1.90;;;12.80;54.20;;;;;;5006457;28;20052;-88
2022/03/19 12:40:26;;;;;;;7.35;2.10;;;12.80;53.10;;;;;;4990568;28;20121;-85
2022/03/19 12:42:57;;;;;;;6.03;2.03;;;12.80;53.40;;;;;;5005982;28;20519;-89
2022/03/19 12:45:36;;;;;;;7.05;2.10;;;12.80;52.60;;;;;;5006519;28;20042;-87
2022/03/19 12:48:07;;;;;;;4.75;1.60;;;12.70;51.50;;;;;;5005414;28;20052;-88
2022/03/19 12:50:33;;;;;;;;;;;12.70;53.80;;;;;;5008004;28;20038;-86
2022/03/19 12:52:58;;;;;;;6.38;2.03;;;12.80;51.20;;;;;;5006972;28;20057;-89
2022/03/19 12:55:24;;;;;;;9.73;2.10;;;12.70;51.60;;;;;;5006275;28;20499;-87
2022/03/19 12:58:03;;;;;;;8.43;1.95;;;12.60;52.30;;;;;;5006592;28;20381;-88
2022/03/19 13:00:29;;;;;;;7.55;1.90;;;12.70;52.90;;;;;;5007666;28;20046;-89
2022/03/19 13:02:54;;;;;;;7.45;2.13;;;12.70;52.80;;;;;;5005986;28;20061;-88
2022/03/19 13:05:21;;;;;;;7.88;2.00;;;12.70;53.40;;;;;;5007420;28;20042;-89